San Jose, California
Current Conditions -  °F | °C
As of 1:34 PM on Friday 31 Oct 2014 (Local Time) from KSJC Reporting Station
Light Rain Light Rain  
Wind Chill: 57°   Ceiling: 1800
Heat Index: 57°   Visibility: 9mi
Dew Point: 55°   Wind: 12mph
Humidity: 94%   Direction: 300°WNW
Pressure: 29.83"   Gusts: 20mph
Location:  37.35°N, 121.9°W
Report Text: KSJC 312034Z 30010G17KT 9SM -RA FEW006 BKN018 OVC034 14/13 A2983 RMK AO2 P0001
Loading
Personal Weather Stations






























Interactive Weather Map
Tropical Storm Tracking
New forecast layout! Learn more

10-Day Weather Forecast

Advertisements
Track Severe Weather on mobile